Time;durP1;ratioP1;P1;durP2;ratioP2;P2;SDS_P1;SDS_P2;PMS_P1;PMS_P2;Temp;Humidity;BMP_temperature;BMP_pressure;BME280_temperature;BME280_humidity;BME280_pressure;Samples;Min_cycle;Max_cycle;Signal;HPM_P1;HPM_P2
2024/01/24 00:00:29;;;;;;;6.45;3.50;;;12.30;99.90;;;;;;4842017;29;20490;-75
2024/01/24 00:02:54;;;;;;;5.97;3.63;;;12.40;99.90;;;;;;4870010;29;20037;-74
2024/01/24 00:05:20;;;;;;;5.95;3.42;;;12.40;99.90;;;;;;4874456;29;20049;-74
2024/01/24 00:07:45;;;;;;;5.88;3.50;;;12.40;99.90;;;;;;4871426;29;20128;-74
2024/01/24 00:10:11;;;;;;;5.45;3.28;;;12.40;99.90;;;;;;4865882;29;20435;-74
2024/01/24 00:12:37;;;;;;;5.15;3.08;;;12.50;99.90;;;;;;4867115;29;20040;-74
2024/01/24 00:15:03;;;;;;;5.22;3.35;;;12.50;99.90;;;;;;4868414;29;20101;-74
2024/01/24 00:17:29;;;;;;;5.63;3.40;;;12.60;99.90;;;;;;4879565;29;20059;-74
2024/01/24 00:19:55;;;;;;;4.57;2.88;;;12.50;99.90;;;;;;4866787;29;20400;-74
2024/01/24 00:22:20;;;;;;;5.20;3.22;;;12.60;99.90;;;;;;4872499;29;20084;-74
2024/01/24 00:24:46;;;;;;;4.93;2.72;;;12.60;99.90;;;;;;4866782;29;20079;-74
2024/01/24 00:27:12;;;;;;;4.53;2.75;;;12.60;99.90;;;;;;4871394;29;20046;-74
2024/01/24 00:29:38;;;;;;;3.83;2.70;;;12.60;99.90;;;;;;4887080;29;20100;-74
2024/01/24 00:32:04;;;;;;;4.60;2.30;;;12.60;99.90;;;;;;4881016;29;20083;-74
2024/01/24 00:34:29;;;;;;;4.22;2.53;;;12.70;99.90;;;;;;4867448;29;20370;-74
2024/01/24 00:36:55;;;;;;;5.18;2.33;;;12.70;99.90;;;;;;4874015;29;20045;-74
2024/01/24 00:39:21;;;;;;;4.40;2.30;;;12.70;99.90;;;;;;4875178;29;20147;-74
2024/01/24 00:41:47;;;;;;;5.25;2.38;;;12.80;99.90;;;;;;4866057;29;20501;-74
2024/01/24 00:44:13;;;;;;;5.78;2.60;;;12.80;99.90;;;;;;4874240;29;20049;-74
2024/01/24 00:46:38;;;;;;;4.72;2.50;;;12.80;99.90;;;;;;4871337;29;20052;-74
2024/01/24 00:49:09;;;;;;;4.82;2.30;;;12.80;99.90;;;;;;4851230;29;20080;-74
2024/01/24 00:51:35;;;;;;;4.32;2.72;;;12.80;99.90;;;;;;4849608;29;20092;-74
2024/01/24 00:54:01;;;;;;;5.75;2.33;;;12.70;99.90;;;;;;4881614;29;20052;-74
2024/01/24 00:56:26;;;;;;;5.35;2.40;;;12.70;99.90;;;;;;4872557;29;21542;-74
2024/01/24 00:58:52;;;;;;;6.15;2.58;;;12.70;99.90;;;;;;4885235;29;20167;-74
2024/01/24 01:01:19;;;;;;;4.18;2.13;;;12.70;99.90;;;;;;4869077;29;20120;-74
2024/01/24 01:03:44;;;;;;;4.72;2.50;;;12.70;99.90;;;;;;4874152;29;20072;-74
2024/01/24 01:06:10;;;;;;;4.45;1.90;;;12.70;99.90;;;;;;4868020;29;20111;-74
2024/01/24 01:08:36;;;;;;;2.95;2.05;;;12.70;99.90;;;;;;4876655;29;20063;-74
2024/01/24 01:11:01;;;;;;;3.80;2.15;;;12.60;99.90;;;;;;4876826;29;20115;-74
2024/01/24 01:13:27;;;;;;;4.13;1.85;;;12.60;99.90;;;;;;4887774;29;20057;-74
2024/01/24 01:15:52;;;;;;;3.75;1.95;;;12.50;99.90;;;;;;4856838;29;20110;-74
2024/01/24 01:18:18;;;;;;;3.95;1.85;;;12.50;99.90;;;;;;4879007;29;20063;-72
2024/01/24 01:20:44;;;;;;;4.22;1.90;;;12.40;99.90;;;;;;4875629;29;20080;-72
2024/01/24 01:23:09;;;;;;;5.05;2.20;;;12.40;99.90;;;;;;4870772;29;20396;-72
2024/01/24 01:25:35;;;;;;;2.63;1.52;;;12.40;99.90;;;;;;4876592;29;20076;-72
2024/01/24 01:28:00;;;;;;;2.17;1.80;;;12.30;99.90;;;;;;4873599;29;20056;-71
2024/01/24 01:30:26;;;;;;;3.35;1.55;;;12.30;99.90;;;;;;4862322;29;20104;-72
2024/01/24 01:32:52;;;;;;;2.55;1.88;;;12.30;99.90;;;;;;4871320;29;20049;-72
2024/01/24 01:35:17;;;;;;;4.13;1.55;;;12.20;99.90;;;;;;4880213;29;20048;-72
2024/01/24 01:37:43;;;;;;;2.20;1.40;;;12.20;99.90;;;;;;4881202;29;20100;-72
2024/01/24 01:40:09;;;;;;;3.10;1.30;;;12.30;99.90;;;;;;4879195;29;20144;-72
2024/01/24 01:42:36;;;;;;;3.55;1.33;;;12.30;99.90;;;;;;4857199;29;20541;-72
2024/01/24 01:45:03;;;;;;;3.83;1.35;;;12.30;99.90;;;;;;4877201;29;20124;-72
2024/01/24 01:47:29;;;;;;;1.58;1.10;;;12.30;99.90;;;;;;4877274;29;20049;-72
2024/01/24 01:49:55;;;;;;;1.52;0.88;;;12.30;99.90;;;;;;4881884;29;20050;-72
2024/01/24 01:52:22;;;;;;;1.65;0.90;;;12.40;99.90;;;;;;4876807;29;20064;-72
2024/01/24 01:54:49;;;;;;;3.78;1.10;;;12.50;99.90;;;;;;4881657;29;20081;-72
2024/01/24 01:57:15;;;;;;;;;;;12.50;99.90;;;;;;4875502;29;20128;-72
2024/01/24 01:59:41;;;;;;;1.33;0.60;;;12.60;99.90;;;;;;4866085;29;19986;-72
2024/01/24 02:02:07;;;;;;;0.98;0.50;;;12.70;99.90;;;;;;4868193;29;20073;-72
2024/01/24 02:04:33;;;;;;;0.95;0.60;;;12.70;99.90;;;;;;4862777;29;20055;-72
2024/01/24 02:07:00;;;;;;;0.60;0.40;;;12.70;99.90;;;;;;4889536;29;20401;-72
2024/01/24 02:09:26;;;;;;;1.05;0.47;;;12.70;99.90;;;;;;4858292;29;20132;-72
2024/01/24 02:11:52;;;;;;;0.52;0.40;;;12.70;99.90;;;;;;4876224;29;20061;-72
2024/01/24 02:14:18;;;;;;;0.65;0.50;;;12.80;99.90;;;;;;4879071;29;20056;-72
2024/01/24 02:16:43;;;;;;;1.75;0.60;;;12.80;99.90;;;;;;4875532;29;20041;-72
2024/01/24 02:19:10;;;;;;;1.50;0.65;;;12.80;99.90;;;;;;4863483;29;20049;-72
2024/01/24 02:21:36;;;;;;;1.58;0.70;;;12.70;99.90;;;;;;4872617;29;20439;-72
2024/01/24 02:24:03;;;;;;;1.52;0.60;;;12.70;99.90;;;;;;4874276;29;20125;-72
2024/01/24 02:26:29;;;;;;;0.60;0.60;;;12.70;99.90;;;;;;4884800;29;20052;-72
2024/01/24 02:28:55;;;;;;;0.60;0.60;;;12.70;99.90;;;;;;4869676;29;20049;-72
2024/01/24 02:31:20;;;;;;;1.92;0.60;;;12.70;99.90;;;;;;4885287;29;20048;-71
2024/01/24 02:33:46;;;;;;;1.67;0.70;;;12.70;99.90;;;;;;4875445;29;20041;-72
2024/01/24 02:36:14;;;;;;;1.65;0.90;;;12.70;99.90;;;;;;4879707;29;20093;-72
2024/01/24 02:38:43;;;;;;;1.70;0.85;;;12.70;99.90;;;;;;4853517;29;20049;-72
2024/01/24 02:41:09;;;;;;;2.25;0.90;;;12.70;99.90;;;;;;4853529;29;20509;-72
2024/01/24 02:43:35;;;;;;;2.58;1.00;;;12.70;99.90;;;;;;4859804;29;20045;-72
2024/01/24 02:46:01;;;;;;;2.35;0.90;;;12.70;99.90;;;;;;4852536;29;20049;-72
2024/01/24 02:48:27;;;;;;;2.90;1.10;;;12.60;99.90;;;;;;4869126;29;20485;-72
2024/01/24 02:50:53;;;;;;;1.90;0.70;;;12.60;99.90;;;;;;4858657;29;20045;-72
2024/01/24 02:53:19;;;;;;;2.42;0.80;;;12.50;99.90;;;;;;4866921;29;20047;-72
2024/01/24 02:55:45;;;;;;;2.25;1.10;;;12.40;99.90;;;;;;4865621;29;20409;-72
2024/01/24 02:58:11;;;;;;;3.07;1.10;;;12.40;99.90;;;;;;4860793;29;20033;-72
2024/01/24 03:00:37;;;;;;;2.97;1.30;;;12.30;99.90;;;;;;4879581;29;20064;-72
2024/01/24 03:03:03;;;;;;;1.75;0.90;;;12.30;99.90;;;;;;4866781;29;20045;-72
2024/01/24 03:05:28;;;;;;;2.95;1.08;;;12.30;99.90;;;;;;4871015;29;20049;-72
2024/01/24 03:07:54;;;;;;;2.95;1.10;;;12.30;99.90;;;;;;4876652;29;20441;-72
2024/01/24 03:10:25;;;;;;;4.40;1.30;;;12.30;99.90;;;;;;4883003;29;20052;-72
2024/01/24 03:12:51;;;;;;;4.05;1.00;;;12.20;99.90;;;;;;4877863;29;20366;-72
2024/01/24 03:15:16;;;;;;;4.70;1.10;;;12.20;99.90;;;;;;4885151;29;20128;-72
2024/01/24 03:17:43;;;;;;;5.55;1.70;;;12.20;99.90;;;;;;4885571;29;20889;-72
2024/01/24 03:20:10;;;;;;;6.75;1.55;;;12.20;99.90;;;;;;4873174;29;20045;-72
2024/01/24 03:22:36;;;;;;;8.00;1.90;;;12.20;99.90;;;;;;4870493;29;20045;-72
2024/01/24 03:25:02;;;;;;;8.32;2.10;;;12.20;99.90;;;;;;4868019;29;20535;-72
2024/01/24 03:27:27;;;;;;;11.48;2.22;;;12.30;99.90;;;;;;4861031;29;20044;-71
2024/01/24 03:29:53;;;;;;;10.63;2.15;;;12.20;99.90;;;;;;4876346;29;20513;-71
2024/01/24 03:32:19;;;;;;;7.95;2.25;;;12.20;99.90;;;;;;4872713;29;20045;-72
2024/01/24 03:34:59;;;;;;;12.85;2.67;;;12.30;99.90;;;;;;4872798;29;20063;-72
2024/01/24 03:37:24;;;;;;;10.23;2.30;;;12.20;99.90;;;;;;4877745;29;20063;-71
2024/01/24 03:39:50;;;;;;;8.88;2.42;;;12.20;99.90;;;;;;4870276;29;20064;-72
2024/01/24 03:42:16;;;;;;;9.77;1.88;;;12.20;99.90;;;;;;4876190;29;20045;-71
2024/01/24 03:44:41;;;;;;;11.50;2.30;;;12.20;99.90;;;;;;4874147;29;20113;-71
2024/01/24 03:47:07;;;;;;;7.63;2.00;;;12.10;99.90;;;;;;4864572;29;20667;-71
2024/01/24 03:49:33;;;;;;;8.23;2.33;;;12.20;99.90;;;;;;4880371;29;20037;-72
2024/01/24 03:51:58;;;;;;;9.40;2.05;;;12.10;99.90;;;;;;4881987;29;20494;-71
2024/01/24 03:54:24;;;;;;;8.90;2.15;;;12.10;99.90;;;;;;4880711;29;20076;-71
2024/01/24 03:56:50;;;;;;;9.65;2.42;;;12.10;99.90;;;;;;4873177;29;20052;-71
2024/01/24 03:59:16;;;;;;;12.75;3.20;;;12.10;99.90;;;;;;4869681;29;20040;-71
2024/01/24 04:01:42;;;;;;;10.68;2.47;;;12.10;99.90;;;;;;4859429;29;20060;-71
2024/01/24 04:04:08;;;;;;;8.30;2.10;;;12.10;99.90;;;;;;4859425;29;20045;-72
2024/01/24 04:06:35;;;;;;;10.55;2.60;;;12.10;99.90;;;;;;4871700;29;20059;-71
2024/01/24 04:09:03;;;;;;;15.27;3.00;;;12.10;99.90;;;;;;4903845;29;20493;-71
2024/01/24 04:11:28;;;;;;;13.82;3.63;;;12.10;99.90;;;;;;4853190;29;20042;-71
2024/01/24 04:13:54;;;;;;;12.25;3.78;;;12.10;99.90;;;;;;4881085;29;20044;-72
2024/01/24 04:16:20;;;;;;;16.30;3.60;;;12.10;99.90;;;;;;4875269;29;20045;-71
2024/01/24 04:18:46;;;;;;;15.00;3.25;;;12.10;99.90;;;;;;4889611;29;20056;-71
2024/01/24 04:21:12;;;;;;;16.42;3.78;;;12.00;99.90;;;;;;4870803;29;20064;-72
2024/01/24 04:23:37;;;;;;;18.77;4.00;;;12.00;99.90;;;;;;4872336;29;20033;-71
2024/01/24 04:26:04;;;;;;;15.77;4.00;;;12.00;99.90;;;;;;4879990;29;20075;-71
2024/01/24 04:28:31;;;;;;;20.42;4.32;;;12.00;99.90;;;;;;4881566;29;20036;-71
2024/01/24 04:30:56;;;;;;;19.50;4.73;;;12.00;99.90;;;;;;4856168;29;20063;-72
2024/01/24 04:33:22;;;;;;;21.20;5.25;;;12.00;99.90;;;;;;4873712;29;20115;-71
2024/01/24 04:35:48;;;;;;;18.67;4.20;;;12.00;99.90;;;;;;4882240;29;20040;-71
2024/01/24 04:38:13;;;;;;;23.08;5.60;;;11.90;99.90;;;;;;4875459;29;20091;-72
2024/01/24 04:40:39;;;;;;;20.17;4.90;;;12.00;99.90;;;;;;4854233;29;20066;-71
2024/01/24 04:43:04;;;;;;;17.65;4.32;;;12.00;99.90;;;;;;4851468;29;20041;-70
2024/01/24 04:45:30;;;;;;;20.67;5.00;;;12.00;99.90;;;;;;4837540;29;20053;-72
2024/01/24 04:47:56;;;;;;;19.55;4.75;;;12.00;99.90;;;;;;4844631;29;20057;-71
2024/01/24 04:50:21;;;;;;;18.83;4.55;;;12.00;99.90;;;;;;4829072;29;20066;-71
2024/01/24 04:52:47;;;;;;;22.52;4.90;;;12.00;99.90;;;;;;4826682;29;20042;-71
2024/01/24 04:55:13;;;;;;;21.33;5.10;;;12.00;99.90;;;;;;4833629;29;20471;-73
2024/01/24 04:57:39;;;;;;;14.27;4.20;;;12.00;99.90;;;;;;4841282;29;20058;-73
2024/01/24 05:00:09;;;;;;;20.08;4.53;;;12.00;99.90;;;;;;4842471;29;20030;-73
2024/01/24 05:02:35;;;;;;;19.92;4.38;;;12.00;99.90;;;;;;4837454;29;20099;-73
2024/01/24 05:05:01;;;;;;;18.67;4.43;;;12.00;99.90;;;;;;4828045;29;21242;-73
2024/01/24 05:07:27;;;;;;;19.42;4.63;;;12.00;99.90;;;;;;4836546;29;20768;-74
2024/01/24 05:09:53;;;;;;;19.17;4.82;;;12.00;99.90;;;;;;4839613;29;20154;-73
2024/01/24 05:12:19;;;;;;;19.77;5.50;;;12.00;99.90;;;;;;4829637;29;20045;-73
2024/01/24 05:14:45;;;;;;;29.10;6.47;;;12.00;99.90;;;;;;4842265;29;20495;-73
2024/01/24 05:17:11;;;;;;;23.83;5.40;;;12.00;99.90;;;;;;4848187;29;20069;-74
2024/01/24 05:19:36;;;;;;;23.63;5.55;;;12.00;99.90;;;;;;4838032;29;20105;-74
2024/01/24 05:22:02;;;;;;;24.85;5.45;;;12.00;99.90;;;;;;4848959;29;20049;-74
2024/01/24 05:24:28;;;;;;;25.10;6.00;;;11.90;99.90;;;;;;4840151;29;20042;-74
2024/01/24 05:26:53;;;;;;;24.88;6.10;;;11.90;99.90;;;;;;4841095;29;20062;-73
2024/01/24 05:29:19;;;;;;;21.17;6.28;;;11.90;99.90;;;;;;4848962;29;20450;-74
2024/01/24 05:31:45;;;;;;;26.27;6.60;;;11.90;99.90;;;;;;4843225;29;20060;-73
2024/01/24 05:34:11;;;;;;;27.45;6.88;;;11.80;99.90;;;;;;4832806;29;20582;-73
2024/01/24 05:36:37;;;;;;;25.58;5.97;;;11.80;99.90;;;;;;4850919;29;20512;-73
2024/01/24 05:39:06;;;;;;;27.30;6.95;;;11.80;99.90;;;;;;4839690;29;20097;-73
2024/01/24 05:41:32;;;;;;;25.05;6.88;;;11.80;99.90;;;;;;4860502;29;20064;-73
2024/01/24 05:43:58;;;;;;;28.23;6.82;;;11.70;99.90;;;;;;4869720;29;20064;-73
2024/01/24 05:46:23;;;;;;;26.35;6.97;;;11.70;99.90;;;;;;4868987;29;20041;-73
2024/01/24 05:48:49;;;;;;;31.30;6.65;;;11.60;99.90;;;;;;4877280;29;20045;-73
2024/01/24 05:51:15;;;;;;;27.45;7.03;;;11.60;99.90;;;;;;4877375;29;20055;-73
2024/01/24 05:53:41;;;;;;;29.50;6.65;;;11.50;99.90;;;;;;4854133;29;20037;-73
2024/01/24 05:56:08;;;;;;;27.92;6.03;;;11.50;99.90;;;;;;4887132;29;20126;-73
2024/01/24 05:58:33;;;;;;;27.38;7.68;;;11.40;99.90;;;;;;4868855;29;20049;-73
2024/01/24 06:00:59;;;;;;;29.45;7.57;;;11.40;99.90;;;;;;4877192;29;20045;-73
2024/01/24 06:03:25;;;;;;;27.70;7.60;;;11.30;99.90;;;;;;4869694;29;20509;-74
2024/01/24 06:05:50;;;;;;;29.48;6.90;;;11.30;99.90;;;;;;4885260;29;20132;-73
2024/01/24 06:08:16;;;;;;;30.08;8.18;;;11.30;99.90;;;;;;4872091;29;20041;-73
2024/01/24 06:10:42;;;;;;;31.17;7.43;;;11.20;99.90;;;;;;4886844;29;20044;-74
2024/01/24 06:13:07;;;;;;;33.83;8.00;;;11.20;99.90;;;;;;4880657;29;20512;-74
2024/01/24 06:15:33;;;;;;;33.15;7.60;;;11.20;99.90;;;;;;4885621;29;20037;-73
2024/01/24 06:17:58;;;;;;;25.10;6.78;;;11.20;99.90;;;;;;4882852;29;20120;-73
2024/01/24 06:20:24;;;;;;;31.55;7.22;;;11.10;99.90;;;;;;4901167;29;20050;-73
2024/01/24 06:22:50;;;;;;;31.38;7.10;;;11.10;99.90;;;;;;4877866;29;20080;-74
2024/01/24 06:25:15;;;;;;;33.75;8.43;;;11.00;99.90;;;;;;4884996;29;20177;-74
2024/01/24 06:27:42;;;;;;;36.03;8.02;;;11.00;99.90;;;;;;4884747;29;20139;-73
2024/01/24 06:30:09;;;;;;;28.20;7.43;;;10.90;99.90;;;;;;4867414;29;20048;-73
2024/01/24 06:32:35;;;;;;;31.88;8.52;;;10.90;99.90;;;;;;4873754;29;20496;-74
2024/01/24 06:35:01;;;;;;;33.00;8.03;;;10.80;99.90;;;;;;4887870;29;20050;-74
2024/01/24 06:37:26;;;;;;;30.45;7.78;;;10.80;99.90;;;;;;4863255;29;20489;-74
2024/01/24 06:39:52;;;;;;;34.53;8.65;;;10.90;99.90;;;;;;4893177;29;20063;-74
2024/01/24 06:42:18;;;;;;;37.22;8.90;;;10.90;99.90;;;;;;4887308;29;20092;-74
2024/01/24 06:44:43;;;;;;;32.95;7.97;;;10.90;99.90;;;;;;4868775;29;20037;-73
2024/01/24 06:47:09;;;;;;;31.40;8.57;;;10.90;99.90;;;;;;4875780;29;20137;-74
2024/01/24 06:49:35;;;;;;;29.40;8.38;;;10.90;99.90;;;;;;4869872;29;20053;-74
2024/01/24 06:52:00;;;;;;;32.42;8.82;;;10.80;99.90;;;;;;4876108;29;20043;-73
2024/01/24 06:54:27;;;;;;;37.35;8.88;;;10.90;99.90;;;;;;4882723;29;20040;-76
2024/01/24 06:56:52;;;;;;;33.80;9.15;;;10.90;99.90;;;;;;4862658;29;20053;-74
2024/01/24 06:59:18;;;;;;;35.45;8.73;;;10.80;99.90;;;;;;4871183;29;20204;-74
2024/01/24 07:01:44;;;;;;;35.28;8.60;;;10.70;99.90;;;;;;4875489;29;20045;-73
2024/01/24 07:04:09;;;;;;;31.88;8.05;;;10.80;99.90;;;;;;4859280;29;20061;-73
2024/01/24 07:06:35;;;;;;;37.70;9.20;;;10.80;99.90;;;;;;4862926;29;20140;-73
2024/01/24 07:09:01;;;;;;;32.92;8.45;;;10.80;99.90;;;;;;4888164;29;20061;-73
2024/01/24 07:11:27;;;;;;;33.00;8.32;;;10.80;99.90;;;;;;4883434;29;20131;-73
2024/01/24 07:13:53;;;;;;;31.98;8.43;;;10.80;99.90;;;;;;4866929;29;20174;-72
2024/01/24 07:16:19;;;;;;;34.13;8.48;;;10.80;99.90;;;;;;4850630;29;20135;-73
2024/01/24 07:18:44;;;;;;;33.03;8.85;;;10.80;99.90;;;;;;4859660;29;20095;-72
2024/01/24 07:21:10;;;;;;;35.38;8.40;;;10.80;99.90;;;;;;4856082;29;20152;-73
2024/01/24 07:23:36;;;;;;;35.45;8.82;;;10.80;99.90;;;;;;4856621;29;20113;-72
2024/01/24 07:26:02;;;;;;;36.42;9.32;;;10.80;99.90;;;;;;4859357;29;20045;-73
2024/01/24 07:28:29;;;;;;;37.03;9.07;;;10.90;99.90;;;;;;4870215;29;20044;-72
2024/01/24 07:30:55;;;;;;;33.10;8.40;;;10.90;99.90;;;;;;4871703;29;20563;-73
2024/01/24 07:33:21;;;;;;;42.85;9.43;;;10.90;99.90;;;;;;4861074;29;20105;-73
2024/01/24 07:35:47;;;;;;;41.10;9.48;;;10.90;99.90;;;;;;4858946;29;20553;-72
2024/01/24 07:38:13;;;;;;;40.00;9.88;;;10.90;99.90;;;;;;4882449;29;20049;-73
2024/01/24 07:40:38;;;;;;;36.45;9.23;;;10.90;99.90;;;;;;4877939;29;20395;-72
2024/01/24 07:43:04;;;;;;;32.70;8.45;;;10.90;99.90;;;;;;4876398;29;20037;-72
2024/01/24 07:45:30;;;;;;;36.33;8.88;;;10.90;99.90;;;;;;4876011;29;21113;-72
2024/01/24 07:47:56;;;;;;;34.38;9.20;;;10.90;99.90;;;;;;4862141;29;20589;-73
2024/01/24 07:50:21;;;;;;;35.78;9.52;;;10.90;99.90;;;;;;4878889;29;20446;-73
2024/01/24 07:52:47;;;;;;;33.15;8.95;;;10.90;99.90;;;;;;4855762;29;20053;-73
2024/01/24 07:55:14;;;;;;;34.92;9.20;;;10.90;99.90;;;;;;4869416;29;20114;-73
2024/01/24 07:57:40;;;;;;;39.03;9.90;;;10.90;99.90;;;;;;4871724;29;20056;-72
2024/01/24 08:00:06;;;;;;;32.40;9.48;;;10.80;99.90;;;;;;4847912;29;20885;-72
2024/01/24 08:02:32;;;;;;;29.98;8.30;;;10.90;99.90;;;;;;4858796;29;20049;-72
2024/01/24 08:04:58;;;;;;;36.75;9.68;;;10.80;99.90;;;;;;4860919;29;20048;-71
2024/01/24 08:07:24;;;;;;;37.42;9.27;;;10.90;99.90;;;;;;4873139;29;20060;-72
2024/01/24 08:09:49;;;;;;;39.15;8.68;;;10.90;99.90;;;;;;4857222;29;20042;-72
2024/01/24 08:12:15;;;;;;;34.65;9.57;;;10.90;99.90;;;;;;4883692;29;20055;-72
2024/01/24 08:14:41;;;;;;;36.22;8.52;;;10.90;99.90;;;;;;4894410;29;20051;-72
2024/01/24 08:17:08;;;;;;;37.70;8.63;;;10.80;99.90;;;;;;4880622;29;20040;-72
2024/01/24 08:19:34;;;;;;;41.58;9.00;;;10.80;99.90;;;;;;4895961;29;20108;-72
2024/01/24 08:22:00;;;;;;;38.88;9.52;;;10.80;99.90;;;;;;4858915;29;20057;-74
2024/01/24 08:24:26;;;;;;;31.10;8.57;;;10.80;99.90;;;;;;4879883;29;20790;-71
2024/01/24 08:26:52;;;;;;;31.58;8.02;;;10.80;99.90;;;;;;4874554;29;20052;-73
2024/01/24 08:29:19;;;;;;;34.97;8.55;;;10.80;99.90;;;;;;4872805;29;20037;-77
2024/01/24 08:31:45;;;;;;;38.13;8.65;;;10.80;99.90;;;;;;4859292;29;20393;-74
2024/01/24 08:34:10;;;;;;;37.08;9.48;;;10.80;99.90;;;;;;4868620;29;20106;-76
2024/01/24 08:36:36;;;;;;;36.78;9.55;;;10.70;99.90;;;;;;4864375;29;20441;-76
2024/01/24 08:39:05;;;;;;;37.63;8.95;;;10.80;99.90;;;;;;4851960;29;20093;-75
2024/01/24 08:41:31;;;;;;;37.15;9.30;;;10.70;99.90;;;;;;4847850;29;20065;-76
2024/01/24 08:43:57;;;;;;;37.78;9.15;;;10.70;99.90;;;;;;4877088;29;20068;-77
2024/01/24 08:46:23;;;;;;;35.72;9.23;;;10.70;99.90;;;;;;4858124;29;20049;-75
2024/01/24 08:48:49;;;;;;;34.13;9.40;;;10.70;99.90;;;;;;4880682;29;20048;-75
2024/01/24 08:51:14;;;;;;;35.08;9.25;;;10.70;99.90;;;;;;4865409;29;20040;-75
2024/01/24 08:53:40;;;;;;;37.40;9.30;;;10.70;99.90;;;;;;4869220;29;20089;-74
2024/01/24 08:56:06;;;;;;;36.63;9.35;;;10.70;99.90;;;;;;4846296;29;20060;-73
2024/01/24 08:58:31;;;;;;;40.03;10.07;;;10.70;99.90;;;;;;4863317;29;20105;-76
2024/01/24 09:00:58;;;;;;;36.58;9.68;;;10.70;99.90;;;;;;4840462;29;20110;-74
2024/01/24 09:03:24;;;;;;;41.65;10.35;;;10.60;99.90;;;;;;4850237;29;20081;-73
2024/01/24 09:05:51;;;;;;;36.30;9.27;;;10.70;99.90;;;;;;4856808;29;20751;-74
2024/01/24 09:08:16;;;;;;;37.92;9.48;;;10.70;99.90;;;;;;4866647;29;20044;-76
2024/01/24 09:10:42;;;;;;;38.67;9.70;;;10.60;99.90;;;;;;4851735;29;20041;-77
2024/01/24 09:13:08;;;;;;;37.38;9.20;;;10.60;99.90;;;;;;4867215;29;20446;-77
2024/01/24 09:15:34;;;;;;;37.55;9.90;;;10.60;99.90;;;;;;4865633;29;20037;-77
2024/01/24 09:18:00;;;;;;;36.47;9.15;;;10.60;99.90;;;;;;4868113;29;20394;-74
2024/01/24 09:20:25;;;;;;;33.75;8.70;;;10.60;99.90;;;;;;4857555;29;20053;-75
2024/01/24 09:22:51;;;;;;;37.20;9.40;;;10.60;99.90;;;;;;4867590;29;20082;-76
2024/01/24 09:25:18;;;;;;;33.03;9.10;;;10.70;99.90;;;;;;4856852;29;20056;-76
2024/01/24 09:27:44;;;;;;;32.80;8.52;;;10.70;99.90;;;;;;4853915;29;20395;-76
2024/01/24 09:30:10;;;;;;;43.13;9.85;;;10.70;99.90;;;;;;4876413;29;20056;-76
2024/01/24 09:32:36;;;;;;;37.15;9.20;;;10.70;99.90;;;;;;4863898;29;20123;-76
2024/01/24 09:35:02;;;;;;;33.83;8.70;;;10.70;99.90;;;;;;4868742;29;20135;-76
2024/01/24 09:37:27;;;;;;;30.83;8.57;;;10.70;99.90;;;;;;4854556;29;20069;-77
2024/01/24 09:39:53;;;;;;;35.45;9.00;;;10.80;99.90;;;;;;4875379;29;20132;-80
2024/01/24 09:42:25;;;;;;;33.25;9.13;;;10.80;99.90;;;;;;4850731;29;20046;-74
2024/01/24 09:44:51;;;;;;;41.30;10.30;;;10.80;99.90;;;;;;4869689;29;20048;-75
2024/01/24 09:47:19;;;;;;;36.47;8.88;;;10.80;99.90;;;;;;4879134;29;20120;-75
2024/01/24 09:49:46;;;;;;;32.45;7.80;;;10.80;99.90;;;;;;4872716;29;20041;-75
2024/01/24 09:52:18;;;;;;;32.30;8.38;;;10.80;99.90;;;;;;4851883;29;20132;-75
2024/01/24 09:54:45;;;;;;;34.30;8.50;;;10.80;99.90;;;;;;4855036;29;20055;-75
2024/01/24 09:57:12;;;;;;;38.10;8.75;;;10.80;99.90;;;;;;4867205;29;20370;-71
2024/01/24 09:59:38;;;;;;;31.08;8.48;;;10.80;99.90;;;;;;4870042;29;20464;-74
2024/01/24 10:02:06;;;;;;;34.10;8.40;;;10.80;99.90;;;;;;4860439;29;20037;-74
2024/01/24 10:04:37;;;;;;;32.42;8.88;;;10.80;99.90;;;;;;4864827;29;20054;-74
2024/01/24 10:07:06;;;;;;;28.67;7.97;;;10.80;99.90;;;;;;4862645;29;20049;-74
2024/01/24 10:09:32;;;;;;;34.83;8.77;;;10.80;99.90;;;;;;4860061;29;20058;-74
2024/01/24 10:11:58;;;;;;;34.25;8.68;;;10.80;99.90;;;;;;4858697;29;20049;-74
2024/01/24 10:14:24;;;;;;;37.42;9.40;;;10.80;99.90;;;;;;4860597;29;20136;-76
2024/01/24 10:16:50;;;;;;;34.63;8.30;;;10.90;99.90;;;;;;4863353;29;20049;-77
2024/01/24 10:19:24;;;;;;;30.70;9.00;;;10.80;99.90;;;;;;4886143;29;20049;-78
2024/01/24 10:21:51;;;;;;;34.38;8.57;;;10.80;99.90;;;;;;4850092;29;20393;-77
2024/01/24 10:24:16;;;;;;;31.83;8.40;;;10.80;99.90;;;;;;4867799;29;20078;-78
2024/01/24 10:26:44;;;;;;;35.55;9.60;;;10.90;99.90;;;;;;4877749;29;20057;-78
2024/01/24 10:29:11;;;;;;;40.88;9.30;;;10.90;99.90;;;;;;4865437;29;20041;-76
2024/01/24 10:31:37;;;;;;;41.20;9.85;;;11.00;99.90;;;;;;4866095;29;20123;-80
2024/01/24 10:34:06;;;;;;;47.53;16.10;;;11.00;99.90;;;;;;4875230;29;20775;-81
2024/01/24 10:36:33;;;;;;;28.15;11.23;;;11.00;99.90;;;;;;4873536;29;20049;-80
2024/01/24 10:39:05;;;;;;;34.07;8.50;;;11.00;99.90;;;;;;4842832;29;20060;-80
2024/01/24 10:41:37;;;;;;;36.70;8.80;;;10.90;99.90;;;;;;4872801;29;20101;-80
2024/01/24 10:44:07;;;;;;;35.72;8.57;;;10.90;99.90;;;;;;4876003;29;20056;-80
2024/01/24 10:46:33;;;;;;;38.05;9.05;;;11.00;99.90;;;;;;4862951;29;20053;-79
2024/01/24 10:49:01;;;;;;;33.30;7.93;;;10.90;99.90;;;;;;4865880;29;20097;-78
2024/01/24 10:51:27;;;;;;;31.20;7.68;;;11.00;99.90;;;;;;4857709;29;20066;-75
2024/01/24 10:53:54;;;;;;;32.85;7.78;;;11.00;99.90;;;;;;4861300;29;20033;-77
2024/01/24 10:56:21;;;;;;;27.10;7.53;;;11.00;99.90;;;;;;4884016;29;20056;-81
2024/01/24 10:58:49;;;;;;;25.38;7.07;;;11.00;99.90;;;;;;4886020;29;20055;-78
2024/01/24 11:01:14;;;;;;;30.80;7.75;;;11.00;99.90;;;;;;4875119;29;20458;-79
2024/01/24 11:03:40;;;;;;;34.10;7.70;;;11.00;99.90;;;;;;4863879;29;20041;-78
2024/01/24 11:06:14;;;;;;;26.83;7.80;;;11.00;99.90;;;;;;4875116;29;20057;-79
2024/01/24 11:09:00;;;;;;;31.15;7.80;;;11.00;99.90;;;;;;4861103;29;20045;-79
2024/01/24 11:11:31;;;;;;;28.42;7.63;;;11.00;99.90;;;;;;4873634;29;20136;-80
2024/01/24 11:14:01;;;;;;;31.88;8.75;;;11.00;99.90;;;;;;4859655;29;20878;-78
2024/01/24 11:16:34;;;;;;;30.85;8.20;;;11.00;99.90;;;;;;4870287;29;20077;-78
2024/01/24 11:19:20;;;;;;;28.08;6.53;;;11.00;99.90;;;;;;4858004;29;20072;-78
2024/01/24 11:21:46;;;;;;;36.60;8.20;;;11.00;99.90;;;;;;4874867;29;20537;-78
2024/01/24 11:24:12;;;;;;;34.03;8.73;;;11.00;99.90;;;;;;4842854;29;20854;-78
2024/01/24 11:26:38;;;;;;;27.23;7.85;;;11.00;99.90;;;;;;4862550;29;20049;-78
2024/01/24 11:29:11;;;;;;;30.02;7.50;;;11.10;99.90;;;;;;4872148;29;20631;-78
2024/01/24 11:31:38;;;;;;;32.25;7.13;;;11.10;99.90;;;;;;4885440;29;20084;-88
2024/01/24 11:34:10;;;;;;;;;;;11.00;99.90;;;;;;4869006;29;20402;-81
2024/01/24 11:36:50;;;;;;;34.53;7.97;;;11.00;99.90;;;;;;4869730;29;19928;-77
2024/01/24 11:39:35;;;;;;;29.85;7.85;;;11.00;99.90;;;;;;4870046;29;20041;-78
2024/01/24 11:42:26;;;;;;;30.92;7.93;;;11.00;99.90;;;;;;4865991;29;20140;-76
2024/01/24 11:45:12;;;;;;;29.17;7.13;;;10.90;99.90;;;;;;4846533;29;20041;-79
2024/01/24 11:47:39;;;;;;;30.05;7.47;;;11.00;99.90;;;;;;4870176;29;20049;-79
2024/01/24 11:50:05;;;;;;;34.58;7.72;;;11.00;99.90;;;;;;4869041;29;20042;-75
2024/01/24 11:52:30;;;;;;;32.50;7.72;;;11.00;99.90;;;;;;4868297;29;20037;-76
2024/01/24 11:54:56;;;;;;;33.17;7.93;;;11.00;99.90;;;;;;4857105;29;20053;-76
2024/01/24 11:57:22;;;;;;;30.40;7.38;;;11.10;99.90;;;;;;4871144;29;20441;-78
2024/01/24 11:59:48;;;;;;;27.83;7.20;;;11.00;99.90;;;;;;4853871;29;20076;-74
2024/01/24 12:02:13;;;;;;;26.02;6.93;;;11.10;99.90;;;;;;4854704;29;20053;-75
2024/01/24 12:04:39;;;;;;;31.00;7.72;;;11.00;99.90;;;;;;4842861;29;20049;-76
2024/01/24 12:07:07;;;;;;;32.28;7.85;;;10.90;99.90;;;;;;4855464;29;20084;-74
2024/01/24 12:09:32;;;;;;;;;;;11.00;99.90;;;;;;4871479;29;20048;-74
2024/01/24 12:11:59;;;;;;;30.13;7.82;;;10.90;99.90;;;;;;4851109;29;19928;-74
2024/01/24 12:14:25;;;;;;;34.83;8.40;;;10.90;99.90;;;;;;4855877;29;20061;-74
2024/01/24 12:16:52;;;;;;;28.65;7.38;;;10.90;99.90;;;;;;4869787;29;20533;-74
2024/01/24 12:19:18;;;;;;;28.92;6.68;;;10.80;99.90;;;;;;4842349;29;20490;-74
2024/01/24 12:21:44;;;;;;;29.05;7.30;;;10.80;99.90;;;;;;4865068;29;20041;-74
2024/01/24 12:24:10;;;;;;;32.58;7.60;;;10.80;99.90;;;;;;4868567;29;20129;-74
2024/01/24 12:26:36;;;;;;;32.50;7.88;;;10.80;99.90;;;;;;4865491;29;20045;-75
2024/01/24 12:29:05;;;;;;;30.48;7.25;;;10.80;99.90;;;;;;4851740;29;20444;-74
2024/01/24 12:31:31;;;;;;;27.45;7.07;;;10.80;99.90;;;;;;4864018;29;20128;-74
2024/01/24 12:33:57;;;;;;;25.60;6.88;;;10.80;99.90;;;;;;4845276;29;20044;-74
2024/01/24 12:36:23;;;;;;;31.40;7.70;;;10.80;99.90;;;;;;4856818;29;20136;-75